Ana Sayfa
METAR-TAF:

METAR-TAF

Havaalanları :

Piedras Negras, Meksika

Enlem: 28-42N, Boylam: 100-31W, yükseklik: 250 m

Güncel hava durumu gözlemi

Rapor saat 20:40 UTC de 2 saat ve 21 dakika önce yapıldı.
Rüzgar güneydan 5 kt
Sıcaklık 18°C
Nem 13%
Basınç 1026 hPa
Görüş mesafesi: 16.1 km
Açık gökyüzü

METAR: MMPG 272040Z 18005KT 10SM SKC 18/M11 A3031 RMK

Saat: 17:01 (23:01 UTC)

Tahmin

Rapor saat 17:15 UTC de 5 saat ve 46 dakika önce yapıldı.
Ayın 27'si saat 18 UTC'den ayın 28'si saat 18 UTC'ye kadar geçerli Tahmin
Rüzgar güney/güneydoğudan 15 kt
Görüş mesafesi: 10 km
Açık gökyüzü
Dönüşüyor
ayın 28'si saat 02 UTC'den ayın 28'si saat 03 UTC'ye kadar
Rüzgar kuzeydan kt
Ayın 28'si saat 1500 UTC'den
Rüzgar güneydoğudan 10 kt
Görüş mesafesi: 10 km
Açık gökyüzü

TAF: MMPG 271715Z 2718/2818 16015KT P6SM SKC BECMG 2802/2803 00000KT FM281500 14010KT P6SM SKC

4.000'den fazla havaalanı için hava durumu gözlemleri ve tahminleri (METAR ve TAF raporları).

Kullanılabilir istasyonlar harita üzerinde sarı ve kırmızı noktalarla gösterilir.

İstasyonun adını görmek için fareyi noktanın üzerinde gezdirin.

Sonrasında hava gözlem ve tahminlerini görmek için tıklayın.

Haritayı değiştirmek için: yaklaştırmak için siyah artı işaretli yeşil düğmeye ve uzaklaştırmak için de eksi işaretli düğmeye hızla tıklayın; bitişik haritalar için yeşil okları kullanın.


METAR-TAF: